Latest Coastal Weather Observations for Ballina

IDN60701

Issued at 10:52 am EST Thursday 28 July 2016 (issued every 10 minutes, with the page automatically refreshed every 10 minutes)

About coastal observations | Map of coastal stations | Coastal observations for NSW | Marine services | Other Formats
Station Details ID: 058198 Name: BALLINA AIRPORT AWS Lat: -28.84 Lon: 153.56 Height: 1.3 m
Data from the previous 72 hours. | See also: Recent months at Ballina
Date/Time
EST
Temp
°C
Wind Pressure Rain since
9am
mm
Weather Cloud Vis
km
Sea
Height
m
Swell
Dir  Spd
kts
Gust
kts
hPa Trend Height
m
Period
s
Dir
28/10:30am 17.2 WSW 9 12 1024.8 - 0.0 - - 10 - - - -
28/10:00am 16.7 SW 9 14 1024.6 - 0.0 - - 10 - - - -
28/09:30am 16.0 WSW 10 13 1024.6 - 0.0 - - 10 - - - -
28/09:00am 15.1 WSW 8 10 1024.5 - 0.0 - - 10 - - - -
28/08:30am 13.8 W 8 10 1024.4 - 0.0 - - 10 - - - -
28/08:00am 12.6 W 6 8 1024.3 - 0.0 - - 10 - - - -
28/07:30am 10.1 W 6 6 1023.9 - 0.0 - - 10 - - - -
28/07:00am 7.4 W 4 5 1023.6 - 0.0 - - 10 - - - -
28/06:30am 6.2 CALM 0 3 1023.0 - 0.0 - - 10 - - - -
28/06:00am 6.6 WNW 3 4 1022.6 - 0.0 - - 10 - - - -
28/05:30am 7.7 WNW 1 3 1022.2 - 0.0 - - 10 - - - -
28/05:00am 7.9 W 4 5 1022.0 - 0.0 - - 10 - - - -
28/04:30am 7.9 WNW 5 7 1021.5 - 0.0 - - 10 - - - -
28/04:00am 8.0 WNW 5 6 1021.4 - 0.0 - - 10 - - - -
28/03:30am 6.5 CALM 0 0 1021.3 - 0.0 - - 10 - - - -
28/03:00am 8.8 W 7 9 1021.3 - 0.0 - - 10 - - - -
28/02:30am 8.5 WNW 5 6 1021.3 - 0.0 - - 10 - - - -
28/02:00am 7.5 WNW 2 4 1021.4 - 0.0 - - 10 - - - -
28/01:30am 7.0 W 4 5 1021.5 - 0.0 - - 10 - - - -
28/01:00am 7.0 W 3 4 1021.6 - 0.0 - - 10 - - - -
28/12:30am 7.9 WSW 4 5 1021.5 - 0.0 - - 10 - - - -
28/12:00am 9.0 WSW 4 5 1021.2 - 0.0 - - 10 - - - -
 
Date/Time
EST
Temp
°C
Wind Pressure Rain since
9am
mm
Weather Cloud Vis
km
Sea
Height
m
Swell
Dir  Spd
kts
Gust
kts
hPa Trend Height
m
Period
s
Dir
27/11:30pm 10.3 W 4 5 1020.9 - 0.0 - - 10 - - - -
27/11:00pm 11.3 WSW 6 7 1020.7 - 0.0 - - 10 - - - -
27/10:30pm 8.4 W 3 4 1020.6 - 0.0 - - 10 - - - -
27/10:00pm 9.7 W 4 5 1020.7 - 0.0 - - 10 - - - -
27/09:30pm 8.0 CALM 0 0 1020.3 - 0.0 - - 10 - - - -
27/09:00pm 9.0 CALM 0 0 1020.1 - 0.0 - - 10 - - - -
27/08:30pm 10.7 W 5 8 1019.9 - 0.0 - - 10 - - - -
27/08:00pm 8.6 WNW 3 5 1019.5 - 0.0 - - 10 - - - -
27/07:30pm 9.5 CALM 0 0 1019.2 - 0.0 - - 10 - - - -
27/07:00pm 9.8 NNW 3 4 1018.6 - 0.0 - - 10 - - - -
27/06:30pm 10.4 CALM 0 0 1018.2 - 0.0 - - 10 - - - -
27/06:00pm 11.8 CALM 0 0 1017.6 - 0.0 - - 10 - - - -
27/05:30pm 13.4 N 3 4 1017.0 - 0.0 - - 10 - - - -
27/05:00pm 15.3 NNE 5 6 1016.6 - 0.0 - - 10 - - - -
27/04:30pm 17.6 NNE 4 5 1016.3 - 0.0 - - 10 - - - -
27/04:00pm 18.4 NNW 6 8 1016.0 - 0.0 - - 10 - - - -
27/03:30pm 19.0 NNW 8 10 1015.7 - 0.0 - - 10 - - - -
27/03:00pm 18.5 NW 8 11 1015.7 - 0.0 - Mostly cloudy 10 - - - -
27/02:30pm 18.2 WNW 7 10 1015.6 - 0.0 - - 10 - - - -
27/02:00pm 18.3 WNW 8 11 1015.6 - 0.0 - - 10 - - - -
27/01:30pm 17.6 WNW 9 12 1015.9 - 0.0 - - 10 - - - -
27/01:00pm 17.5 WNW 12 17 1016.2 - 0.0 - - 10 - - - -
27/12:30pm 17.2 WNW 9 13 1016.7 - 0.0 - - 10 - - - -
27/12:00pm 17.0 WNW 10 15 1017.0 - 0.0 - Mostly cloudy 10 - - - -
27/11:30am 16.7 WNW 10 14 1017.4 - 0.0 - - 10 - - - -
27/11:00am 17.0 W 11 15 1017.8 - 0.0 - - 10 - - - -
27/10:30am 16.7 W 13 17 1018.0 - 0.0 - - 10 - - - -
27/10:00am 18.2 W 12 17 1018.2 - 0.0 - - 10 - - - -
27/09:30am 16.7 WNW 4 8 1018.2 - 0.0 - - 10 - - - -
27/09:00am 16.4 WNW 8 13 1018.1 - 0.0 - Mostly cloudy 10 - - - -
27/08:30am 15.6 W 9 13 1018.1 - 0.0 - - 10 - - - -
27/08:00am 15.0 WNW 5 8 1017.8 - 0.0 - - 10 - - - -
27/07:30am 14.6 W 5 9 1018.0 - 0.0 - - 10 - - - -
27/07:00am 14.7 WNW 8 12 1017.7 - 0.0 - - 10 - - - -
27/06:30am 14.5 WNW 10 12 1017.4 - 0.0 - - 10 - - - -
27/06:00am 13.5 W 6 8 1016.9 - 0.0 - Cloudy 10 - - - -
27/05:30am 13.1 WNW 5 6 1016.9 - 0.0 - - 10 - - - -
27/05:00am 14.1 WNW 5 7 1016.3 - 0.0 - - 10 - - - -
27/04:30am 15.1 W 4 8 1016.4 - 0.0 - - 10 - - - -
27/04:00am 14.9 W 8 10 1016.2 - 0.0 - - 10 - - - -
27/03:30am 15.0 WNW 6 8 1015.9 - 0.0 - - 10 - - - -
27/03:00am 14.3 WSW 3 8 1016.0 - 0.0 - Mostly cloudy 10 - - - -
27/02:30am 14.8 WNW 4 12 1016.3 - 0.0 - - 10 - - - -
27/02:00am 13.9 WSW 3 5 1016.5 - 0.0 - - 10 - - - -
27/01:30am 13.2 WSW 4 5 1016.5 - 0.0 - - 10 - - - -
27/01:00am 12.5 CALM 0 0 1016.0 - 0.0 - - 10 - - - -
27/12:30am 13.2 WSW 4 5 1016.1 - 0.0 - - 10 - - - -
27/12:00am 13.1 N 1 5 1016.2 - 0.0 - Cloudy 10 - - - -
 
Date/Time
EST
Temp
°C
Wind Pressure Rain since
9am
mm
Weather Cloud Vis
km
Sea
Height
m
Swell
Dir  Spd
kts
Gust
kts
hPa Trend Height
m
Period
s
Dir
26/11:30pm 12.4 N 4 6 1016.5 - 0.0 - - 10 - - - -
26/11:00pm 13.3 CALM 0 2 1016.5 - 0.0 - - 10 - - - -
26/10:30pm 12.5 CALM 0 3 1016.3 - 0.0 - - 10 - - - -
26/10:00pm 12.8 N 3 6 1016.6 - 0.0 - - 10 - - - -
26/09:30pm 12.9 N 2 5 1016.9 - 0.0 - - 10 - - - -
26/09:00pm 13.2 N 2 4 1016.9 - 0.0 - Cloudy 10 - - - -
26/08:30pm 13.5 CALM 0 0 1016.8 - 0.0 - - 10 - - - -
26/08:00pm 14.0 NNW 1 4 1016.5 - 0.0 - - 10 - - - -
26/07:30pm 14.7 N 5 6 1016.5 - 0.0 - - 10 - - - -
26/07:00pm 14.2 N 3 5 1016.2 - 0.0 - - 10 - - - -
26/06:30pm 14.9 CALM 0 3 1016.0 - 0.0 - - 10 - - - -
26/06:00pm 15.3 NNE 5 6 1015.7 - 0.0 - Cloudy 10 - - - -
26/05:30pm 15.8 NNE 5 7 1015.8 - 0.0 - - 10 - - - -
26/05:00pm 16.4 NNE 5 7 1015.6 - 0.0 - - 10 - - - -
26/04:30pm 17.0 N 7 9 1015.5 - 0.0 - - 10 - - - -
26/04:00pm 18.2 NNE 7 9 1015.4 - 0.0 - - 10 - - - -
26/03:30pm 18.7 N 10 13 1015.4 - 0.0 - - 10 - - - -
26/03:00pm 19.3 N 10 15 1015.5 - 0.0 - Cloudy 10 - - - -
26/02:30pm 20.4 N 11 14 1015.6 - 0.0 - - 10 - - - -
26/02:00pm 21.0 NNE 7 12 1015.6 - 0.0 - - 10 - - - -
26/01:30pm 20.9 NE 9 13 1016.1 - 0.0 - - 10 - - - -
26/01:00pm 20.7 NW 8 11 1016.4 - 0.0 - - 10 - - - -
26/12:30pm 20.4 NNW 7 15 1017.0 - 0.0 - - 10 - - - -
26/12:00pm 19.8 NW 8 11 1017.6 - 0.0 - - 10 - - - -
26/11:30am 19.2 NW 7 11 1018.2 - 0.0 - - 10 - - - -
26/11:00am 18.6 W 9 12 1018.6 - 0.0 - - 10 - - - -
26/10:30am 17.6 W 9 12 1018.8 - 0.0 - - 10 - - - -
26/10:00am 17.0 WNW 9 12 1019.2 - 0.0 - - 10 - - - -
26/09:30am 16.3 WNW 10 14 1019.6 - 0.0 - - 10 - - - -
26/09:00am 15.7 WNW 9 13 1019.4 - 0.0 - - 10 - - - -
26/08:30am 14.6 W 8 12 1019.3 - 0.0 - - 10 - - - -
26/08:00am 13.5 W 8 11 1019.3 - 0.0 - - 10 - - - -
26/07:30am 10.9 W 6 8 1019.0 - 0.0 - - 10 - - - -
26/07:00am 10.9 W 7 9 1018.7 - 0.0 - - 10 - - - -
26/06:30am 10.7 W 8 9 1018.2 - 0.0 - - 10 - - - -
26/06:00am 12.0 WNW 9 13 1018.0 - 0.0 - Mostly cloudy 10 - - - -
26/05:30am 11.7 W 9 12 1017.7 - 0.0 - - 10 - - - -
26/05:00am 12.0 WNW 8 10 1017.5 - 0.0 - - 10 - - - -
26/04:30am 11.4 W 7 9 1017.6 - 0.0 - - 10 - - - -
26/04:00am 10.7 W 7 10 1017.6 - 0.0 - - 10 - - - -
26/03:30am 9.7 W 4 5 1017.2 - 0.0 - - 10 - - - -
26/03:00am 10.9 W 5 9 1017.0 - 0.0 - Cloudy 10 - - - -
26/02:30am 10.4 NW 5 7 1017.1 - 0.0 - - 10 - - - -
26/02:00am 8.7 NE 3 6 1017.3 - 0.0 - - 10 - - - -
26/01:30am 8.4 N 2 4 1017.5 - 0.0 - - 10 - - - -
26/01:00am 9.2 NW 6 9 1017.6 - 0.0 - - 10 - - - -
26/12:30am 8.6 WNW 5 8 1017.9 - 0.0 - - 10 - - - -
26/12:00am 8.5 ENE 5 6 1018.0 - 0.0 - Partly cloudy 10 - - - -
 
Date/Time
EST
Temp
°C
Wind Pressure Rain since
9am
mm
Weather Cloud Vis
km
Sea
Height
m
Swell
Dir  Spd
kts
Gust
kts
hPa Trend Height
m
Period
s
Dir
25/11:30pm 10.7 WSW 4 6 1017.8 - 0.0 - - 10 - - - -
25/11:00pm 10.5 WNW 3 5 1017.5 - 0.0 - - 10 - - - -
25/10:30pm 9.9 NE 3 5 1017.9 - 0.0 - - 10 - - - -
25/10:00pm 10.6 N 2 4 1018.0 - 0.0 - - 10 - - - -
25/09:30pm 10.4 CALM 0 0 1017.8 - 0.0 - - 10 - - - -
25/09:00pm 11.5 CALM 0 0 1017.6 - 0.0 - Mostly cloudy 10 - - - -
25/08:30pm 12.3 NNW 3 6 1017.7 - 0.0 - - 10 - - - -
25/08:00pm 11.8 WNW 3 7 1017.7 - 0.0 - - 10 - - - -
25/07:30pm 12.7 NNW 3 4 1017.3 - 0.0 - - 10 - - - -
25/07:00pm 13.3 N 3 4 1017.0 - 0.0 - - 10 - - - -
25/06:30pm 13.9 NNE 4 5 1016.8 - 0.0 - - 10 - - - -
25/06:00pm 15.1 NNE 7 9 1016.4 - 0.0 - - 10 - - - -
25/05:30pm 15.6 NNE 7 10 1016.1 - 0.0 - - 10 - - - -
25/05:00pm 16.1 ENE 7 11 1015.6 - 0.0 - - 10 - - - -
25/04:30pm 17.8 ENE 8 11 1015.4 - 0.0 - - 10 - - - -
25/04:00pm 20.5 WNW 6 10 1015.2 - 0.0 - - 10 - - - -
25/03:30pm 20.7 NW 7 10 1015.3 - 0.0 - - 10 - - - -
25/03:00pm 20.7 NW 7 11 1015.1 - 0.0 - - 10 - - - -
25/02:30pm 20.8 NW 5 9 1015.2 - 0.0 - - 10 - - - -
25/02:00pm 20.2 NW 2 6 1015.4 - 0.0 - - 10 - - - -
25/01:30pm 19.1 NNW 7 11 1015.4 - 0.0 - - 10 - - - -
25/01:00pm 19.7 WSW 9 13 1015.6 - 0.0 - - 10 - - - -
25/12:30pm 19.3 WNW 7 11 1015.9 - 0.0 - - 10 - - - -
25/12:00pm 18.7 W 8 15 1016.5 - 0.0 - - 10 - - - -
25/11:30am 18.8 WSW 9 14 1017.0 - 0.0 - - 10 - - - -
25/11:00am 17.7 W 9 17 1017.4 - 0.0 - - 10 - - - -

Other Formats:

Comma delimited format used in spreadsheet applications
http://www.bom.gov.au/fwo/IDN60701/IDN60701.94596.axf

JavaScript Object Notation format (JSON) in row-major order
http://www.bom.gov.au/fwo/IDN60701/IDN60701.94596.json